createdAt,value
2022-11-01T00:00:53.317Z,32.47
2022-11-01T00:03:57.346Z,32.70
2022-11-01T00:07:01.220Z,34.33
2022-11-01T00:10:05.407Z,33.70
2022-11-01T00:13:09.054Z,33.87
2022-11-01T00:16:15.613Z,34.43
2022-11-01T00:19:19.553Z,36.80
2022-11-01T00:22:23.197Z,37.63
2022-11-01T00:25:26.726Z,36.67
2022-11-01T00:28:31.674Z,39.97
2022-11-01T00:31:36.694Z,37.80
2022-11-01T00:34:40.301Z,37.23
2022-11-01T00:37:43.943Z,37.93
2022-11-01T00:40:47.986Z,40.37
2022-11-01T00:43:51.618Z,39.40
2022-11-01T00:46:56.609Z,40.17
2022-11-01T00:50:00.192Z,38.43
2022-11-01T00:53:04.032Z,41.93
2022-11-01T00:56:09.532Z,42.63
2022-11-01T00:59:13.059Z,41.97
2022-11-01T01:02:18.081Z,41.97
2022-11-01T01:05:21.989Z,41.53
2022-11-01T01:08:26.609Z,41.13
2022-11-01T01:11:30.537Z,42.07
2022-11-01T01:14:34.175Z,42.20
2022-11-01T01:17:39.450Z,43.03
2022-11-01T01:20:43.503Z,41.33
2022-11-01T01:23:48.757Z,39.03
2022-11-01T01:26:52.994Z,39.67
2022-11-01T01:29:56.937Z,39.10
2022-11-01T01:33:02.087Z,39.57
2022-11-01T01:36:07.738Z,39.90
2022-11-01T01:39:11.473Z,39.37
2022-11-01T01:42:25.047Z,39.60
2022-11-01T01:45:37.592Z,38.97
2022-11-01T01:48:46.002Z,39.83
2022-11-01T01:51:49.634Z,38.53
2022-11-01T01:54:53.709Z,38.00
2022-11-01T01:57:59.286Z,37.27
2022-11-01T02:01:03.078Z,37.93
2022-11-01T02:04:19.063Z,38.27
2022-11-01T02:07:22.726Z,37.13
2022-11-01T02:10:27.011Z,38.30
2022-11-01T02:13:32.398Z,34.50
2022-11-01T02:16:56.255Z,35.33
2022-11-01T02:20:34.440Z,35.60
2022-11-01T02:24:29.103Z,35.43
2022-11-01T02:27:52.925Z,35.73
2022-11-01T02:31:17.720Z,32.37
2022-11-01T02:34:35.301Z,33.70
2022-11-01T02:37:52.452Z,34.93
2022-11-01T02:41:07.556Z,34.57
2022-11-01T02:44:18.232Z,32.90
2022-11-01T02:47:22.789Z,35.20
2022-11-01T02:50:34.845Z,32.83
2022-11-01T02:53:38.798Z,33.60
2022-11-01T02:56:42.667Z,34.93
2022-11-01T02:59:49.674Z,32.97
2022-11-01T03:03:00.808Z,33.33
2022-11-01T03:06:16.343Z,32.00
2022-11-01T03:09:20.189Z,31.03
2022-11-01T03:15:50.194Z,32.20
2022-11-01T03:19:25.955Z,30.27
2022-11-01T03:22:44.053Z,30.03
2022-11-01T03:25:54.795Z,31.43
2022-11-01T03:29:04.326Z,29.23
2022-11-01T03:32:10.899Z,30.17
2022-11-01T03:35:23.013Z,31.30
2022-11-01T03:38:34.268Z,30.57
2022-11-01T03:41:45.972Z,32.47
2022-11-01T03:44:55.809Z,33.20
2022-11-01T03:47:59.622Z,32.53
2022-11-01T03:51:03.522Z,32.20
2022-11-01T03:54:11.390Z,33.60
2022-11-01T03:57:15.085Z,32.13
2022-11-01T04:00:22.180Z,33.47
2022-11-01T04:03:25.710Z,32.70
2022-11-01T04:06:29.427Z,30.43
2022-11-01T04:09:34.317Z,31.67
2022-11-01T04:12:37.951Z,32.10
2022-11-01T04:15:58.660Z,29.83
2022-11-01T04:19:19.803Z,32.13
2022-11-01T04:22:24.645Z,29.00
2022-11-01T04:25:30.402Z,30.40
2022-11-01T04:28:34.020Z,28.73
2022-11-01T04:31:38.674Z,27.30
2022-11-01T04:34:44.933Z,28.33
2022-11-01T04:37:49.018Z,27.67
2022-11-01T04:40:53.999Z,28.80
2022-11-01T04:44:00.258Z,24.87
2022-11-01T04:47:03.842Z,26.50
2022-11-01T04:50:08.244Z,26.33
2022-11-01T04:53:12.014Z,27.07
2022-11-01T04:56:16.991Z,25.50
2022-11-01T04:59:20.565Z,26.37
2022-11-01T05:02:25.752Z,26.37
2022-11-01T05:05:29.393Z,25.13
2022-11-01T05:08:33.111Z,25.27
2022-11-01T05:11:38.085Z,25.13
2022-11-01T05:14:41.730Z,25.03
2022-11-01T05:17:45.389Z,24.23
2022-11-01T05:20:49.054Z,22.97
2022-11-01T05:23:52.663Z,21.30
2022-11-01T05:26:58.122Z,20.97
2022-11-01T05:30:01.927Z,21.40
2022-11-01T05:33:07.682Z,21.83
2022-11-01T05:36:11.393Z,21.57
2022-11-01T05:39:15.000Z,23.13
2022-11-01T05:42:19.909Z,22.47
2022-11-01T05:45:23.583Z,21.93
2022-11-01T05:48:27.110Z,22.60
2022-11-01T05:51:30.710Z,20.53
2022-11-01T05:54:34.351Z,21.27
2022-11-01T05:57:39.423Z,19.60
2022-11-01T06:00:43.217Z,20.17
2022-11-01T06:03:51.558Z,20.00
2022-11-01T06:06:55.158Z,20.27
2022-11-01T06:09:58.783Z,19.47
2022-11-01T06:13:04.621Z,18.87
2022-11-01T06:16:09.504Z,19.73
2022-11-01T06:19:13.278Z,19.47
2022-11-01T06:22:16.976Z,23.50
2022-11-01T06:25:21.043Z,23.27
2022-11-01T06:28:26.026Z,37.37
2022-11-01T06:31:29.774Z,32.07
2022-11-01T06:34:33.755Z,23.60
2022-11-01T06:37:37.295Z,17.73
2022-11-01T06:40:40.862Z,15.57
2022-11-01T06:43:45.875Z,16.33
2022-11-01T06:46:49.549Z,15.37
2022-11-01T06:49:53.189Z,16.97
2022-11-01T06:52:58.669Z,14.37
2022-11-01T06:56:03.072Z,14.93
2022-11-01T06:59:08.413Z,13.67
2022-11-01T07:02:14.560Z,15.63
2022-11-01T07:05:18.677Z,13.20
2022-11-01T07:08:22.374Z,13.53
2022-11-01T07:11:30.985Z,13.20
2022-11-01T07:14:36.666Z,13.13
2022-11-01T07:17:40.431Z,12.47
2022-11-01T07:20:44.133Z,13.20
2022-11-01T07:23:48.024Z,11.70
2022-11-01T07:26:51.583Z,11.97
2022-11-01T07:29:56.611Z,11.53
2022-11-01T07:33:03.507Z,10.63
2022-11-01T07:36:09.948Z,10.23
2022-11-01T07:39:13.730Z,10.10
2022-11-01T07:42:17.299Z,9.50
2022-11-01T07:45:35.089Z,9.80
2022-11-01T07:48:39.309Z,9.70
2022-11-01T07:51:42.914Z,9.17
2022-11-01T07:54:46.500Z,8.70
2022-11-01T07:57:52.321Z,8.30
2022-11-01T08:00:57.641Z,9.03
2022-11-01T08:04:01.190Z,6.53
2022-11-01T08:07:04.806Z,6.10
2022-11-01T08:10:10.883Z,7.00
2022-11-01T08:13:18.710Z,5.87
2022-11-01T08:16:23.678Z,5.70
2022-11-01T08:19:27.252Z,6.20
2022-11-01T08:22:31.070Z,5.73
2022-11-01T08:25:35.621Z,5.40
2022-11-01T08:28:39.837Z,5.53
2022-11-01T08:31:45.419Z,5.17
2022-11-01T08:34:49.694Z,5.33
2022-11-01T08:37:54.999Z,5.00
2022-11-01T08:40:59.989Z,5.50
2022-11-01T08:44:03.540Z,4.53
2022-11-01T08:47:08.613Z,4.73
2022-11-01T08:50:15.078Z,4.60
2022-11-01T08:53:19.681Z,4.67
2022-11-01T08:56:24.630Z,4.27
2022-11-01T08:59:28.298Z,3.83
2022-11-01T09:02:33.348Z,4.03
2022-11-01T09:05:37.646Z,4.37
2022-11-01T09:08:41.250Z,4.40
2022-11-01T09:11:44.937Z,4.30
2022-11-01T09:14:49.167Z,4.50
2022-11-01T09:17:54.360Z,4.07
2022-11-01T09:20:58.306Z,3.57
2022-11-01T09:24:02.170Z,2.23
2022-11-01T09:27:07.678Z,2.20
2022-11-01T09:30:13.015Z,1.50
2022-11-01T09:33:18.710Z,0.90
2022-11-01T09:36:22.547Z,1.37
2022-11-01T09:39:26.533Z,1.07
2022-11-01T09:42:34.585Z,1.00
2022-11-01T09:45:38.720Z,0.90
2022-11-01T09:48:46.509Z,0.70
2022-11-01T09:51:50.256Z,1.10
2022-11-01T09:54:54.296Z,0.93
2022-11-01T09:58:05.770Z,0.90
2022-11-01T10:01:31.140Z,0.80
2022-11-01T10:04:58.563Z,1.00
2022-11-01T10:08:12.515Z,1.23
2022-11-01T10:11:54.028Z,1.37
2022-11-01T10:15:21.740Z,0.93
2022-11-01T10:18:30.210Z,1.37
2022-11-01T10:21:44.704Z,1.23
2022-11-01T10:24:53.897Z,1.40
2022-11-01T10:28:10.811Z,1.70
2022-11-01T10:31:21.418Z,1.47
2022-11-01T10:34:33.374Z,1.80
2022-11-01T10:38:03.931Z,1.83
2022-11-01T10:41:25.230Z,1.43
2022-11-01T10:44:35.022Z,2.07
2022-11-01T10:47:42.827Z,1.60
2022-11-01T10:50:47.830Z,2.33
2022-11-01T10:53:58.689Z,2.03
2022-11-01T10:57:10.608Z,1.57
2022-11-01T11:00:20.151Z,1.50
2022-11-01T11:03:32.759Z,1.57
2022-11-01T11:06:38.281Z,1.77
2022-11-01T11:09:43.279Z,1.77
2022-11-01T11:12:50.931Z,1.50
2022-11-01T11:16:00.542Z,1.90
2022-11-01T11:19:19.608Z,1.60
2022-11-01T11:22:26.528Z,1.37
2022-11-01T11:25:38.561Z,1.50
2022-11-01T11:28:48.973Z,1.13
2022-11-01T11:31:59.317Z,1.50
2022-11-01T11:35:08.832Z,2.23
2022-11-01T11:38:15.907Z,1.20
2022-11-01T11:41:32.969Z,1.07
2022-11-01T11:44:45.411Z,1.97
2022-11-01T11:47:49.829Z,1.53
2022-11-01T11:51:04.482Z,1.23
2022-11-01T11:54:28.941Z,1.90
2022-11-01T11:57:34.421Z,1.87
2022-11-01T12:00:39.501Z,1.50
2022-11-01T12:03:51.407Z,2.43
2022-11-01T12:06:54.967Z,1.27
2022-11-01T12:10:03.115Z,1.80
2022-11-01T12:13:27.669Z,1.80
2022-11-01T12:16:31.856Z,1.90
2022-11-01T12:19:35.429Z,1.50
2022-11-01T12:22:45.084Z,1.37
2022-11-01T12:25:51.500Z,1.70
2022-11-01T12:29:19.132Z,1.57
2022-11-01T12:32:30.358Z,1.67
2022-11-01T12:35:42.529Z,1.63
2022-11-01T12:38:52.390Z,1.77
2022-11-01T12:42:02.341Z,1.60
2022-11-01T12:45:20.834Z,1.97
2022-11-01T12:48:31.946Z,2.03
2022-11-01T12:51:45.501Z,1.47
2022-11-01T12:55:05.351Z,2.03
2022-11-01T12:58:16.760Z,1.90
2022-11-01T13:01:38.007Z,2.07
2022-11-01T13:04:55.072Z,2.57
2022-11-01T13:08:17.231Z,1.90
2022-11-01T13:11:31.317Z,2.20
2022-11-01T13:14:58.397Z,2.03
2022-11-01T13:18:16.973Z,1.93
2022-11-01T13:21:35.890Z,2.27
2022-11-01T13:24:48.157Z,2.10
2022-11-01T13:28:06.704Z,1.47
2022-11-01T13:31:28.663Z,1.87
2022-11-01T13:35:17.795Z,2.10
2022-11-01T13:38:33.502Z,2.00
2022-11-01T13:41:45.483Z,1.90
2022-11-01T13:44:58.761Z,2.00
2022-11-01T13:48:19.291Z,1.80
2022-11-01T13:51:43.710Z,2.10
2022-11-01T13:54:59.285Z,2.33
2022-11-01T13:58:04.207Z,1.83
2022-11-01T14:01:32.260Z,1.53
2022-11-01T14:04:39.934Z,2.13
2022-11-01T14:08:16.151Z,1.90
2022-11-01T14:11:48.884Z,1.87
2022-11-01T14:14:55.776Z,1.77
2022-11-01T14:18:10.167Z,2.10
2022-11-01T14:21:32.099Z,2.93
2022-11-01T14:24:55.049Z,1.80
2022-11-01T14:28:22.502Z,2.47
2022-11-01T14:31:33.812Z,2.47
2022-11-01T14:34:39.429Z,2.30
2022-11-01T14:37:48.341Z,1.90
2022-11-01T14:40:57.689Z,1.67
2022-11-01T14:44:11.926Z,2.00
2022-11-01T14:47:31.941Z,2.07
2022-11-01T14:50:50.444Z,2.33
2022-11-01T14:54:03.702Z,1.93
2022-11-01T14:57:26.859Z,1.97
2022-11-01T15:00:33.333Z,1.73
2022-11-01T15:03:36.971Z,1.40
2022-11-01T15:06:44.784Z,2.13
2022-11-01T15:09:59.005Z,1.63
2022-11-01T15:13:05.597Z,1.73
2022-11-01T15:16:18.768Z,1.70
2022-11-01T15:19:28.402Z,1.77
2022-11-01T15:22:34.801Z,1.93
2022-11-01T15:25:38.749Z,1.50
2022-11-01T15:28:49.299Z,1.50
2022-11-01T15:31:59.101Z,1.57
2022-11-01T15:35:20.186Z,1.50
2022-11-01T15:38:24.215Z,1.97
2022-11-01T15:41:31.166Z,1.17
2022-11-01T15:44:36.273Z,1.70
2022-11-01T15:47:46.462Z,1.40
2022-11-01T15:50:56.797Z,2.23
2022-11-01T15:54:14.419Z,2.00
2022-11-01T15:57:24.556Z,1.67
2022-11-01T16:00:36.881Z,1.87
2022-11-01T16:03:49.550Z,1.83
2022-11-01T16:06:59.594Z,1.87
2022-11-01T16:10:06.166Z,1.83
2022-11-01T16:13:18.981Z,1.93
2022-11-01T16:16:25.813Z,1.40
2022-11-01T16:19:42.251Z,1.70
2022-11-01T16:22:48.869Z,1.80
2022-11-01T16:26:03.600Z,1.83
2022-11-01T16:29:07.231Z,2.20
2022-11-01T16:32:21.538Z,2.33
2022-11-01T16:35:33.750Z,1.90
2022-11-01T16:38:44.516Z,2.10
2022-11-01T16:41:49.256Z,2.03
2022-11-01T16:44:57.667Z,2.07
2022-11-01T16:48:02.872Z,2.63
2022-11-01T16:51:07.402Z,2.10
2022-11-01T16:54:12.683Z,2.00
2022-11-01T16:57:26.392Z,2.87
2022-11-01T17:00:30.041Z,2.27
2022-11-01T17:03:35.102Z,2.50
2022-11-01T17:06:39.411Z,1.97
2022-11-01T17:09:43.197Z,2.17
2022-11-01T17:12:47.059Z,2.50
2022-11-01T17:15:52.931Z,2.23
2022-11-01T17:19:01.301Z,2.03
2022-11-01T17:22:09.854Z,2.33
2022-11-01T17:25:20.221Z,1.83
2022-11-01T17:28:25.057Z,2.30
2022-11-01T17:31:30.511Z,1.97
2022-11-01T17:34:35.582Z,2.40
2022-11-01T17:37:41.053Z,1.80
2022-11-01T17:40:46.510Z,2.03
2022-11-01T17:43:50.187Z,2.53
2022-11-01T17:46:53.766Z,2.07
2022-11-01T17:49:59.059Z,2.90
2022-11-01T17:53:03.179Z,1.97
2022-11-01T17:56:08.473Z,2.97
2022-11-01T17:59:12.247Z,1.90
2022-11-01T18:02:16.071Z,2.33
2022-11-01T18:05:21.278Z,2.90
2022-11-01T18:08:29.042Z,2.50
2022-11-01T18:11:43.144Z,2.40
2022-11-01T18:14:58.964Z,2.53
2022-11-01T18:18:26.976Z,3.10
2022-11-01T18:21:56.192Z,2.40
2022-11-01T18:25:06.294Z,2.57
2022-11-01T18:28:15.101Z,2.80
2022-11-01T18:31:27.133Z,2.43
2022-11-01T18:34:40.563Z,2.20
2022-11-01T18:38:00.763Z,2.73
2022-11-01T18:41:10.632Z,2.63
2022-11-01T18:44:17.050Z,2.63
2022-11-01T18:47:26.029Z,1.60
2022-11-01T18:50:31.168Z,2.47
2022-11-01T18:53:37.043Z,3.23
2022-11-01T18:56:44.817Z,2.10
2022-11-01T18:59:50.237Z,2.23
2022-11-01T19:02:58.707Z,2.77
2022-11-01T19:06:20.671Z,2.33
2022-11-01T19:09:29.130Z,2.60
2022-11-01T19:12:39.476Z,2.30
2022-11-01T19:15:43.234Z,2.37
2022-11-01T19:18:49.822Z,2.73
2022-11-01T19:21:58.922Z,2.53
2022-11-01T19:25:15.039Z,2.70
2022-11-01T19:28:38.747Z,2.57
2022-11-01T19:31:47.698Z,2.07
2022-11-01T19:34:53.646Z,2.07
2022-11-01T19:37:58.326Z,2.60
2022-11-01T19:41:04.007Z,2.37
2022-11-01T19:44:21.779Z,2.20
2022-11-01T19:47:41.750Z,2.40
2022-11-01T19:50:47.964Z,2.20
2022-11-01T19:53:53.455Z,2.50
2022-11-01T19:57:02.311Z,2.87
2022-11-01T20:00:20.244Z,2.40
2022-11-01T20:03:35.493Z,2.30
2022-11-01T20:06:49.629Z,2.27
2022-11-01T20:09:58.425Z,2.63
2022-11-01T20:13:04.597Z,3.00
2022-11-01T20:16:09.556Z,2.37
2022-11-01T20:19:17.385Z,1.80
2022-11-01T20:22:22.662Z,1.70
2022-11-01T20:25:30.046Z,2.10
2022-11-01T20:28:36.307Z,2.10
2022-11-01T20:31:40.688Z,2.43
2022-11-01T20:34:44.637Z,2.53
2022-11-01T20:37:48.731Z,2.10
2022-11-01T20:40:53.322Z,1.87
2022-11-01T20:43:58.678Z,2.10
2022-11-01T20:47:02.290Z,2.37
2022-11-01T20:50:08.906Z,2.10
2022-11-01T20:53:13.861Z,2.00
2022-11-01T20:56:17.843Z,2.30
2022-11-01T20:59:22.871Z,2.30
2022-11-01T21:02:27.305Z,1.90
2022-11-01T21:05:34.903Z,1.70
2022-11-01T21:08:38.553Z,2.00
2022-11-01T21:11:44.899Z,1.80
2022-11-01T21:14:51.044Z,2.00
2022-11-01T21:17:59.029Z,1.83
2022-11-01T21:21:35.095Z,1.63
2022-11-01T21:24:44.439Z,2.17
2022-11-01T21:27:50.127Z,1.60
2022-11-01T21:30:55.690Z,1.53
2022-11-01T21:34:04.466Z,1.53
2022-11-01T21:37:10.730Z,1.87
2022-11-01T21:40:26.736Z,1.70
2022-11-01T21:43:36.410Z,2.00
2022-11-01T21:46:41.381Z,1.60
2022-11-01T21:49:45.102Z,2.13
2022-11-01T21:52:48.646Z,1.67
2022-11-01T21:55:52.455Z,1.87
2022-11-01T21:58:56.101Z,2.03
2022-11-01T22:02:02.713Z,1.73
2022-11-01T22:05:07.499Z,1.57
2022-11-01T22:08:11.214Z,1.53
2022-11-01T22:11:15.097Z,1.50
2022-11-01T22:14:18.987Z,1.57
2022-11-01T22:17:23.978Z,1.97
2022-11-01T22:20:27.693Z,2.00
2022-11-01T22:23:31.654Z,1.60
2022-11-01T22:26:35.288Z,1.37
2022-11-01T22:29:38.893Z,1.57
2022-11-01T22:32:44.077Z,1.50
2022-11-01T22:35:47.706Z,2.13
2022-11-01T22:38:51.578Z,1.47
2022-11-01T22:41:56.270Z,1.80
2022-11-01T22:44:59.991Z,2.03
2022-11-01T22:48:16.308Z,1.47
2022-11-01T22:51:32.594Z,1.40
2022-11-01T22:54:40.163Z,1.23
2022-11-01T22:57:50.389Z,1.90
2022-11-01T23:00:55.254Z,1.90
2022-11-01T23:04:00.702Z,1.73
2022-11-01T23:07:18.326Z,1.60
2022-11-01T23:10:32.270Z,1.67
2022-11-01T23:13:57.528Z,1.77
2022-11-01T23:17:01.082Z,2.40
2022-11-01T23:20:07.793Z,1.50
2022-11-01T23:23:19.305Z,1.70
2022-11-01T23:26:24.998Z,1.70
2022-11-01T23:29:28.987Z,1.40
2022-11-01T23:32:33.048Z,1.70
2022-11-01T23:35:38.082Z,1.63
2022-11-01T23:38:47.285Z,2.17
2022-11-01T23:41:54.885Z,1.40
2022-11-01T23:44:58.723Z,2.33
2022-11-01T23:48:03.949Z,1.40
2022-11-01T23:51:16.093Z,1.30
2022-11-01T23:54:25.501Z,2.17
2022-11-01T23:57:29.102Z,2.20
